sensor_id;sensor_type;location;lat;lon;timestamp;pressure;altitude;pressure_sealevel;temperature;humidity
5812;BME280;2932;52.400;9.558;2023-02-10T00:01:24;102747.81;;;6.03;70.69
5812;BME280;2932;52.400;9.558;2023-02-10T00:03:50;102753.94;;;6.15;70.46
5812;BME280;2932;52.400;9.558;2023-02-10T00:06:16;102751.16;;;5.78;71.80
5812;BME280;2932;52.400;9.558;2023-02-10T00:08:49;102747.94;;;5.86;71.09
5812;BME280;2932;52.400;9.558;2023-02-10T00:11:15;102754.91;;;5.94;70.76
5812;BME280;2932;52.400;9.558;2023-02-10T00:13:41;102761.34;;;6.15;70.46
5812;BME280;2932;52.400;9.558;2023-02-10T00:16:08;102750.53;;;5.71;72.01
5812;BME280;2932;52.400;9.558;2023-02-10T00:18:34;102753.03;;;5.99;71.00
5812;BME280;2932;52.400;9.558;2023-02-10T00:21:15;102758.34;;;5.84;71.88
5812;BME280;2932;52.400;9.558;2023-02-10T00:23:41;102756.44;;;6.17;71.42
5812;BME280;2932;52.400;9.558;2023-02-10T00:26:10;102761.56;;;5.76;72.33
5812;BME280;2932;52.400;9.558;2023-02-10T00:28:36;102758.09;;;5.86;72.14
5812;BME280;2932;52.400;9.558;2023-02-10T00:31:09;102761.34;;;5.83;71.96
5812;BME280;2932;52.400;9.558;2023-02-10T00:33:35;102766.81;;;6.10;71.41
5812;BME280;2932;52.400;9.558;2023-02-10T00:36:05;102766.56;;;6.11;71.78
5812;BME280;2932;52.400;9.558;2023-02-10T00:38:31;102763.47;;;6.40;70.81
5812;BME280;2932;52.400;9.558;2023-02-10T00:41:02;102773.75;;;6.17;71.50
5812;BME280;2932;52.400;9.558;2023-02-10T00:43:27;102765.69;;;6.06;71.46
5812;BME280;2932;52.400;9.558;2023-02-10T00:45:53;102763.34;;;6.24;71.51
5812;BME280;2932;52.400;9.558;2023-02-10T00:48:18;102774.16;;;5.99;72.21
5812;BME280;2932;52.400;9.558;2023-02-10T00:50:43;102761.53;;;6.03;71.85
5812;BME280;2932;52.400;9.558;2023-02-10T00:53:09;102778.00;;;6.40;70.99
5812;BME280;2932;52.400;9.558;2023-02-10T00:55:34;102775.34;;;6.50;70.86
5812;BME280;2932;52.400;9.558;2023-02-10T00:57:59;102776.38;;;6.39;71.36
5812;BME280;2932;52.400;9.558;2023-02-10T01:00:24;102784.47;;;6.61;71.00
5812;BME280;2932;52.400;9.558;2023-02-10T01:02:50;102791.59;;;6.15;71.30
5812;BME280;2932;52.400;9.558;2023-02-10T01:05:15;102795.81;;;6.27;71.11
5812;BME280;2932;52.400;9.558;2023-02-10T01:07:41;102791.19;;;6.01;71.84
5812;BME280;2932;52.400;9.558;2023-02-10T01:10:06;102786.28;;;6.03;71.82
5812;BME280;2932;52.400;9.558;2023-02-10T01:12:31;102782.28;;;6.21;71.16
5812;BME280;2932;52.400;9.558;2023-02-10T01:14:57;102778.16;;;6.18;71.53
5812;BME280;2932;52.400;9.558;2023-02-10T01:17:23;102771.94;;;5.96;71.95
5812;BME280;2932;52.400;9.558;2023-02-10T01:19:48;102779.16;;;6.07;72.17
5812;BME280;2932;52.400;9.558;2023-02-10T01:22:16;102785.19;;;6.04;72.22
5812;BME280;2932;52.400;9.558;2023-02-10T01:24:41;102772.59;;;5.81;72.97
5812;BME280;2932;52.400;9.558;2023-02-10T01:27:06;102771.88;;;5.59;73.54
5812;BME280;2932;52.400;9.558;2023-02-10T01:29:32;102784.84;;;5.68;73.77
5812;BME280;2932;52.400;9.558;2023-02-10T01:31:57;102780.13;;;6.23;72.55
5812;BME280;2932;52.400;9.558;2023-02-10T01:34:23;102781.06;;;6.07;72.63
5812;BME280;2932;52.400;9.558;2023-02-10T01:36:48;102779.59;;;6.26;72.46
5812;BME280;2932;52.400;9.558;2023-02-10T01:39:15;102778.44;;;6.22;71.53
5812;BME280;2932;52.400;9.558;2023-02-10T01:41:40;102780.56;;;6.10;72.03
5812;BME280;2932;52.400;9.558;2023-02-10T01:46:51;102764.53;;;5.96;72.27
5812;BME280;2932;52.400;9.558;2023-02-10T01:49:23;102765.09;;;5.72;72.78
5812;BME280;2932;52.400;9.558;2023-02-10T01:54:49;102771.50;;;5.82;72.95
5812;BME280;2932;52.400;9.558;2023-02-10T01:57:16;102769.91;;;5.86;72.62
5812;BME280;2932;52.400;9.558;2023-02-10T01:59:42;102771.63;;;5.92;72.96
5812;BME280;2932;52.400;9.558;2023-02-10T02:02:09;102766.16;;;5.92;73.11
5812;BME280;2932;52.400;9.558;2023-02-10T02:07:08;102762.63;;;5.43;74.64
5812;BME280;2932;52.400;9.558;2023-02-10T02:09:33;102763.31;;;5.55;74.66
5812;BME280;2932;52.400;9.558;2023-02-10T02:15:06;102766.44;;;5.69;74.47
5812;BME280;2932;52.400;9.558;2023-02-10T02:18:07;102764.00;;;5.73;74.58
5812;BME280;2932;52.400;9.558;2023-02-10T02:31:59;102774.97;;;5.94;74.24
5812;BME280;2932;52.400;9.558;2023-02-10T02:34:40;102768.63;;;5.67;75.28
5812;BME280;2932;52.400;9.558;2023-02-10T02:39:52;102767.56;;;6.00;74.75
5812;BME280;2932;52.400;9.558;2023-02-10T02:42:33;102770.81;;;5.92;74.97
5812;BME280;2932;52.400;9.558;2023-02-10T02:55:38;102764.97;;;6.20;74.09
5812;BME280;2932;52.400;9.558;2023-02-10T03:00:44;102763.88;;;6.21;73.59
5812;BME280;2932;52.400;9.558;2023-02-10T03:03:11;102760.72;;;6.40;73.37
5812;BME280;2932;52.400;9.558;2023-02-10T03:05:36;102763.94;;;6.26;73.18
5812;BME280;2932;52.400;9.558;2023-02-10T03:08:02;102773.16;;;6.52;73.21
5812;BME280;2932;52.400;9.558;2023-02-10T03:10:28;102762.31;;;6.30;72.94
5812;BME280;2932;52.400;9.558;2023-02-10T03:12:53;102766.47;;;6.38;73.22
5812;BME280;2932;52.400;9.558;2023-02-10T03:15:19;102765.28;;;6.71;72.89
5812;BME280;2932;52.400;9.558;2023-02-10T03:17:44;102770.75;;;6.66;72.39
5812;BME280;2932;52.400;9.558;2023-02-10T03:20:10;102768.06;;;6.81;71.77
5812;BME280;2932;52.400;9.558;2023-02-10T03:22:36;102762.03;;;6.84;71.48
5812;BME280;2932;52.400;9.558;2023-02-10T03:25:01;102773.56;;;6.76;72.00
5812;BME280;2932;52.400;9.558;2023-02-10T03:27:26;102761.72;;;6.81;71.93
5812;BME280;2932;52.400;9.558;2023-02-10T03:29:52;102771.16;;;6.38;72.48
5812;BME280;2932;52.400;9.558;2023-02-10T03:32:18;102763.16;;;6.88;71.81
5812;BME280;2932;52.400;9.558;2023-02-10T03:34:44;102782.25;;;6.58;72.35
5812;BME280;2932;52.400;9.558;2023-02-10T03:37:10;102772.94;;;6.64;72.24
5812;BME280;2932;52.400;9.558;2023-02-10T03:39:36;102768.69;;;6.41;72.37
5812;BME280;2932;52.400;9.558;2023-02-10T03:42:02;102773.66;;;6.44;72.79
5812;BME280;2932;52.400;9.558;2023-02-10T03:44:27;102774.13;;;6.78;72.25
5812;BME280;2932;52.400;9.558;2023-02-10T03:46:52;102763.72;;;6.95;71.66
5812;BME280;2932;52.400;9.558;2023-02-10T03:49:18;102772.94;;;6.64;72.09
5812;BME280;2932;52.400;9.558;2023-02-10T03:51:43;102768.34;;;6.85;71.56
5812;BME280;2932;52.400;9.558;2023-02-10T03:54:08;102771.09;;;6.75;71.60
5812;BME280;2932;52.400;9.558;2023-02-10T03:56:34;102767.47;;;6.69;72.10
5812;BME280;2932;52.400;9.558;2023-02-10T03:59:01;102770.41;;;6.52;72.27
5812;BME280;2932;52.400;9.558;2023-02-10T04:01:26;102766.16;;;6.77;72.21
5812;BME280;2932;52.400;9.558;2023-02-10T04:03:52;102777.06;;;6.61;72.23
5812;BME280;2932;52.400;9.558;2023-02-10T04:06:17;102775.28;;;6.92;71.42
5812;BME280;2932;52.400;9.558;2023-02-10T04:08:42;102785.28;;;6.56;72.46
5812;BME280;2932;52.400;9.558;2023-02-10T04:11:08;102778.06;;;7.02;71.74
5812;BME280;2932;52.400;9.558;2023-02-10T04:13:35;102770.56;;;6.88;71.59
5812;BME280;2932;52.400;9.558;2023-02-10T04:16:12;102771.72;;;6.97;71.79
5812;BME280;2932;52.400;9.558;2023-02-10T04:18:38;102759.22;;;6.69;72.45
5812;BME280;2932;52.400;9.558;2023-02-10T04:21:08;102756.50;;;6.74;72.04
5812;BME280;2932;52.400;9.558;2023-02-10T04:23:34;102761.66;;;7.33;71.17
5812;BME280;2932;52.400;9.558;2023-02-10T04:26:00;102765.50;;;7.32;70.59
5812;BME280;2932;52.400;9.558;2023-02-10T04:28:26;102768.78;;;7.19;70.82
5812;BME280;2932;52.400;9.558;2023-02-10T04:30:52;102760.25;;;7.15;71.03
5812;BME280;2932;52.400;9.558;2023-02-10T04:33:19;102772.06;;;7.21;70.86
5812;BME280;2932;52.400;9.558;2023-02-10T04:35:47;102772.06;;;7.21;70.94
5812;BME280;2932;52.400;9.558;2023-02-10T04:38:12;102769.34;;;7.31;70.86
5812;BME280;2932;52.400;9.558;2023-02-10T04:40:38;102770.94;;;7.07;71.32
5812;BME280;2932;52.400;9.558;2023-02-10T04:43:05;102772.31;;;7.09;71.19
5812;BME280;2932;52.400;9.558;2023-02-10T04:45:30;102769.81;;;7.02;71.04
5812;BME280;2932;52.400;9.558;2023-02-10T04:47:55;102766.56;;;7.11;71.04
5812;BME280;2932;52.400;9.558;2023-02-10T04:50:21;102759.66;;;7.08;71.34
5812;BME280;2932;52.400;9.558;2023-02-10T04:52:46;102765.69;;;7.00;71.17
5812;BME280;2932;52.400;9.558;2023-02-10T04:55:11;102763.16;;;6.88;71.75
5812;BME280;2932;52.400;9.558;2023-02-10T04:57:37;102768.19;;;7.07;71.50
5812;BME280;2932;52.400;9.558;2023-02-10T05:00:03;102765.63;;;6.90;71.59
5812;BME280;2932;52.400;9.558;2023-02-10T05:02:29;102771.47;;;7.03;71.26
5812;BME280;2932;52.400;9.558;2023-02-10T05:04:54;102775.38;;;6.55;72.57
5812;BME280;2932;52.400;9.558;2023-02-10T05:07:19;102774.53;;;6.55;72.53
5812;BME280;2932;52.400;9.558;2023-02-10T05:09:45;102778.94;;;6.14;73.41
5812;BME280;2932;52.400;9.558;2023-02-10T05:12:10;102776.53;;;6.64;72.88
5812;BME280;2932;52.400;9.558;2023-02-10T05:14:35;102773.91;;;6.43;73.21
5812;BME280;2932;52.400;9.558;2023-02-10T05:17:01;102780.16;;;6.28;73.59
5812;BME280;2932;52.400;9.558;2023-02-10T05:19:26;102784.28;;;6.30;73.19
5812;BME280;2932;52.400;9.558;2023-02-10T05:21:52;102777.88;;;6.20;73.53
5812;BME280;2932;52.400;9.558;2023-02-10T05:24:17;102788.66;;;6.26;73.36
5812;BME280;2932;52.400;9.558;2023-02-10T05:26:42;102795.47;;;6.19;73.86
5812;BME280;2932;52.400;9.558;2023-02-10T05:29:08;102794.50;;;5.98;73.74
5812;BME280;2932;52.400;9.558;2023-02-10T05:31:33;102798.19;;;5.87;74.74
5812;BME280;2932;52.400;9.558;2023-02-10T05:33:58;102796.34;;;5.65;74.77
5812;BME280;2932;52.400;9.558;2023-02-10T05:36:24;102796.53;;;6.13;74.25
5812;BME280;2932;52.400;9.558;2023-02-10T05:38:49;102798.53;;;5.90;74.50
5812;BME280;2932;52.400;9.558;2023-02-10T05:41:33;102792.69;;;5.55;75.16
5812;BME280;2932;52.400;9.558;2023-02-10T05:43:58;102796.53;;;5.86;74.35
5812;BME280;2932;52.400;9.558;2023-02-10T05:46:24;102796.38;;;5.70;75.03
5812;BME280;2932;52.400;9.558;2023-02-10T05:48:49;102800.53;;;5.73;75.28
5812;BME280;2932;52.400;9.558;2023-02-10T05:51:14;102793.59;;;5.65;75.53
5812;BME280;2932;52.400;9.558;2023-02-10T05:53:40;102791.94;;;5.64;75.70
5812;BME280;2932;52.400;9.558;2023-02-10T05:56:05;102800.22;;;5.69;75.43
5812;BME280;2932;52.400;9.558;2023-02-10T05:58:31;102798.00;;;5.40;76.53
5812;BME280;2932;52.400;9.558;2023-02-10T06:01:00;102809.34;;;5.48;76.26
5812;BME280;2932;52.400;9.558;2023-02-10T06:03:25;102810.69;;;5.73;75.94
5812;BME280;2932;52.400;9.558;2023-02-10T06:05:51;102810.19;;;5.76;75.80
5812;BME280;2932;52.400;9.558;2023-02-10T06:08:16;102812.34;;;5.47;76.42
5812;BME280;2932;52.400;9.558;2023-02-10T06:10:42;102825.47;;;5.66;76.36
5812;BME280;2932;52.400;9.558;2023-02-10T06:13:07;102816.44;;;5.71;75.90
5812;BME280;2932;52.400;9.558;2023-02-10T06:15:33;102815.75;;;5.54;75.76
5812;BME280;2932;52.400;9.558;2023-02-10T06:17:58;102816.72;;;5.43;76.67
5812;BME280;2932;52.400;9.558;2023-02-10T06:20:23;102818.50;;;5.32;76.91
5812;BME280;2932;52.400;9.558;2023-02-10T06:22:48;102823.53;;;5.40;76.65
5812;BME280;2932;52.400;9.558;2023-02-10T06:25:14;102824.88;;;5.38;76.94
5812;BME280;2932;52.400;9.558;2023-02-10T06:27:39;102827.50;;;5.27;76.93
5812;BME280;2932;52.400;9.558;2023-02-10T06:30:05;102834.91;;;5.49;76.39
5812;BME280;2932;52.400;9.558;2023-02-10T06:32:31;102837.78;;;5.37;77.02
5812;BME280;2932;52.400;9.558;2023-02-10T06:34:56;102842.50;;;5.42;77.06
5812;BME280;2932;52.400;9.558;2023-02-10T06:37:21;102843.00;;;5.39;76.99
5812;BME280;2932;52.400;9.558;2023-02-10T06:39:46;102850.34;;;5.33;76.78
5812;BME280;2932;52.400;9.558;2023-02-10T06:42:12;102858.59;;;5.60;77.00
5812;BME280;2932;52.400;9.558;2023-02-10T06:44:38;102859.59;;;5.49;76.83
5812;BME280;2932;52.400;9.558;2023-02-10T06:47:06;102870.66;;;5.81;76.48
5812;BME280;2932;52.400;9.558;2023-02-10T06:49:32;102870.28;;;5.72;76.30
5812;BME280;2932;52.400;9.558;2023-02-10T06:51:57;102863.69;;;5.73;76.11
5812;BME280;2932;52.400;9.558;2023-02-10T06:54:25;102869.66;;;5.65;76.52
5812;BME280;2932;52.400;9.558;2023-02-10T06:56:51;102876.88;;;5.71;76.96
5812;BME280;2932;52.400;9.558;2023-02-10T06:59:16;102866.31;;;5.85;76.21
5812;BME280;2932;52.400;9.558;2023-02-10T07:01:42;102873.72;;;5.84;76.14
5812;BME280;2932;52.400;9.558;2023-02-10T07:04:07;102871.38;;;5.93;76.30
5812;BME280;2932;52.400;9.558;2023-02-10T07:06:33;102876.16;;;6.08;75.70
5812;BME280;2932;52.400;9.558;2023-02-10T07:08:58;102867.53;;;5.94;75.97
5812;BME280;2932;52.400;9.558;2023-02-10T07:11:23;102873.16;;;6.09;76.11
5812;BME280;2932;52.400;9.558;2023-02-10T07:13:49;102876.88;;;5.93;75.77
5812;BME280;2932;52.400;9.558;2023-02-10T07:16:14;102878.72;;;6.14;75.28
5812;BME280;2932;52.400;9.558;2023-02-10T07:18:41;102872.50;;;5.97;76.00
5812;BME280;2932;52.400;9.558;2023-02-10T07:21:07;102874.56;;;6.12;75.75
5812;BME280;2932;52.400;9.558;2023-02-10T07:23:32;102881.72;;;6.13;75.83
5812;BME280;2932;52.400;9.558;2023-02-10T07:25:57;102871.44;;;6.03;75.79
5812;BME280;2932;52.400;9.558;2023-02-10T07:28:23;102876.94;;;6.30;75.24
5812;BME280;2932;52.400;9.558;2023-02-10T07:30:48;102878.28;;;6.27;75.31
5812;BME280;2932;52.400;9.558;2023-02-10T07:33:13;102876.84;;;6.20;75.37
5812;BME280;2932;52.400;9.558;2023-02-10T07:35:39;102875.69;;;6.48;75.09
5812;BME280;2932;52.400;9.558;2023-02-10T07:38:04;102874.59;;;6.49;74.89
5812;BME280;2932;52.400;9.558;2023-02-10T07:40:30;102876.47;;;6.38;74.77
5812;BME280;2932;52.400;9.558;2023-02-10T07:42:56;102879.22;;;6.11;75.84
5812;BME280;2932;52.400;9.558;2023-02-10T07:45:21;102879.59;;;6.57;75.53
5812;BME280;2932;52.400;9.558;2023-02-10T07:47:47;102876.34;;;6.60;74.64
5812;BME280;2932;52.400;9.558;2023-02-10T07:50:12;102883.97;;;6.53;75.03
5812;BME280;2932;52.400;9.558;2023-02-10T07:52:38;102885.53;;;6.44;75.58
5812;BME280;2932;52.400;9.558;2023-02-10T07:55:03;102882.78;;;6.39;75.27
5812;BME280;2932;52.400;9.558;2023-02-10T07:57:29;102890.06;;;6.97;74.93
5812;BME280;2932;52.400;9.558;2023-02-10T07:59:55;102894.16;;;6.94;74.22
5812;BME280;2932;52.400;9.558;2023-02-10T08:02:20;102876.84;;;6.99;73.89
5812;BME280;2932;52.400;9.558;2023-02-10T08:04:45;102882.63;;;6.55;75.22
5812;BME280;2932;52.400;9.558;2023-02-10T08:07:11;102886.69;;;6.48;75.41
5812;BME280;2932;52.400;9.558;2023-02-10T08:09:37;102889.63;;;6.36;75.88
5812;BME280;2932;52.400;9.558;2023-02-10T08:12:03;102889.94;;;6.45;75.55
5812;BME280;2932;52.400;9.558;2023-02-10T08:14:28;102895.22;;;6.88;74.55
5812;BME280;2932;52.400;9.558;2023-02-10T08:16:53;102895.03;;;7.00;74.56
5812;BME280;2932;52.400;9.558;2023-02-10T08:19:19;102899.28;;;7.23;73.85
5812;BME280;2932;52.400;9.558;2023-02-10T08:21:44;102899.44;;;7.58;73.23
5812;BME280;2932;52.400;9.558;2023-02-10T08:24:10;102893.88;;;7.48;72.59
5812;BME280;2932;52.400;9.558;2023-02-10T08:26:35;102891.81;;;7.86;71.71
5812;BME280;2932;52.400;9.558;2023-02-10T08:29:01;102892.00;;;7.64;72.21
5812;BME280;2932;52.400;9.558;2023-02-10T08:31:27;102889.88;;;7.86;71.91
5812;BME280;2932;52.400;9.558;2023-02-10T08:33:52;102900.78;;;7.51;72.08
5812;BME280;2932;52.400;9.558;2023-02-10T08:36:19;102902.19;;;7.58;72.20
5812;BME280;2932;52.400;9.558;2023-02-10T08:38:46;102901.97;;;7.75;72.45
5812;BME280;2932;52.400;9.558;2023-02-10T08:41:12;102897.84;;;7.78;71.49
5812;BME280;2932;52.400;9.558;2023-02-10T08:43:37;102900.00;;;7.65;72.27
5812;BME280;2932;52.400;9.558;2023-02-10T08:46:03;102904.97;;;7.68;72.38
5812;BME280;2932;52.400;9.558;2023-02-10T08:48:28;102908.09;;;8.08;71.01
5812;BME280;2932;52.400;9.558;2023-02-10T08:50:55;102917.25;;;8.54;70.01
5812;BME280;2932;52.400;9.558;2023-02-10T08:53:21;102914.47;;;8.23;70.26
5812;BME280;2932;52.400;9.558;2023-02-10T08:56:01;102917.56;;;8.37;70.20
5812;BME280;2932;52.400;9.558;2023-02-10T08:58:27;102920.03;;;8.39;70.36
5812;BME280;2932;52.400;9.558;2023-02-10T09:00:53;102926.09;;;8.51;69.63
5812;BME280;2932;52.400;9.558;2023-02-10T09:03:18;102923.06;;;8.78;69.07
5812;BME280;2932;52.400;9.558;2023-02-10T09:05:43;102921.16;;;8.38;69.39
5812;BME280;2932;52.400;9.558;2023-02-10T09:08:11;102918.94;;;8.34;69.56
5812;BME280;2932;52.400;9.558;2023-02-10T09:10:39;102925.50;;;8.28;70.50
5812;BME280;2932;52.400;9.558;2023-02-10T09:13:05;102926.03;;;8.15;70.59
5812;BME280;2932;52.400;9.558;2023-02-10T09:15:30;102921.31;;;7.90;71.38
5812;BME280;2932;52.400;9.558;2023-02-10T09:17:55;102926.56;;;8.07;70.71
5812;BME280;2932;52.400;9.558;2023-02-10T09:20:20;102924.94;;;8.16;70.17
5812;BME280;2932;52.400;9.558;2023-02-10T09:22:46;102926.06;;;8.30;70.61
5812;BME280;2932;52.400;9.558;2023-02-10T09:25:13;102933.66;;;7.78;71.20
5812;BME280;2932;52.400;9.558;2023-02-10T09:27:38;102930.72;;;8.10;71.07
5812;BME280;2932;52.400;9.558;2023-02-10T09:30:04;102935.41;;;8.14;70.83
5812;BME280;2932;52.400;9.558;2023-02-10T09:32:29;102926.66;;;8.38;69.99
5812;BME280;2932;52.400;9.558;2023-02-10T09:34:55;102934.66;;;8.34;70.37
5812;BME280;2932;52.400;9.558;2023-02-10T09:37:20;102929.69;;;8.72;69.65
5812;BME280;2932;52.400;9.558;2023-02-10T09:39:46;102936.25;;;9.06;68.47
5812;BME280;2932;52.400;9.558;2023-02-10T09:42:20;102925.81;;;8.73;68.08
5812;BME280;2932;52.400;9.558;2023-02-10T09:45:09;102929.66;;;9.02;67.25
5812;BME280;2932;52.400;9.558;2023-02-10T09:47:50;102930.22;;;8.53;68.65
5812;BME280;2932;52.400;9.558;2023-02-10T09:50:25;102942.38;;;8.52;69.00
5812;BME280;2932;52.400;9.558;2023-02-10T09:53:12;102946.47;;;8.24;69.62
5812;BME280;2932;52.400;9.558;2023-02-10T09:55:47;102953.16;;;8.69;68.86
5812;BME280;2932;52.400;9.558;2023-02-10T10:00:45;102945.97;;;8.68;67.95
5812;BME280;2932;52.400;9.558;2023-02-10T10:03:22;102949.81;;;8.97;67.37
5812;BME280;2932;52.400;9.558;2023-02-10T10:06:02;102949.72;;;9.28;66.90
5812;BME280;2932;52.400;9.558;2023-02-10T10:11:35;102944.22;;;9.97;65.10
5812;BME280;2932;52.400;9.558;2023-02-10T10:14:03;102943.75;;;8.60;67.27
5812;BME280;2932;52.400;9.558;2023-02-10T10:27:33;102946.22;;;8.87;67.75
5812;BME280;2932;52.400;9.558;2023-02-10T10:30:12;102947.03;;;9.08;68.03
5812;BME280;2932;52.400;9.558;2023-02-10T10:32:45;102949.94;;;9.52;67.44
5812;BME280;2932;52.400;9.558;2023-02-10T10:35:26;102951.00;;;9.61;65.73
5812;BME280;2932;52.400;9.558;2023-02-10T10:37:55;102952.09;;;10.24;64.52
5812;BME280;2932;52.400;9.558;2023-02-10T10:40:24;102949.69;;;10.47;64.57
5812;BME280;2932;52.400;9.558;2023-02-10T10:42:57;102947.25;;;10.79;63.29
5812;BME280;2932;52.400;9.558;2023-02-10T10:50:17;102942.69;;;10.25;63.84
5812;BME280;2932;52.400;9.558;2023-02-10T10:52:44;102935.47;;;10.29;63.49
5812;BME280;2932;52.400;9.558;2023-02-10T10:55:16;102930.72;;;10.35;63.04
5812;BME280;2932;52.400;9.558;2023-02-10T10:57:43;102940.47;;;10.22;63.40
5812;BME280;2932;52.400;9.558;2023-02-10T11:00:21;102932.31;;;10.41;63.10
5812;BME280;2932;52.400;9.558;2023-02-10T11:02:55;102941.09;;;10.04;64.01
5812;BME280;2932;52.400;9.558;2023-02-10T11:05:22;102928.25;;;10.33;63.43
5812;BME280;2932;52.400;9.558;2023-02-10T11:07:51;102928.09;;;10.04;64.89
5812;BME280;2932;52.400;9.558;2023-02-10T11:10:37;102920.00;;;10.57;63.03
5812;BME280;2932;52.400;9.558;2023-02-10T11:13:04;102913.03;;;10.31;63.20
5812;BME280;2932;52.400;9.558;2023-02-10T11:15:41;102916.69;;;10.16;63.79
5812;BME280;2932;52.400;9.558;2023-02-10T11:18:22;102911.94;;;9.83;64.20
5812;BME280;2932;52.400;9.558;2023-02-10T11:21:14;102907.78;;;10.63;62.73
5812;BME280;2932;52.400;9.558;2023-02-10T11:23:49;102906.09;;;10.33;63.95
5812;BME280;2932;52.400;9.558;2023-02-10T11:26:23;102913.41;;;9.60;64.45
5812;BME280;2932;52.400;9.558;2023-02-10T11:28:50;102907.69;;;9.46;65.45
5812;BME280;2932;52.400;9.558;2023-02-10T11:34:01;102905.59;;;10.26;64.21
5812;BME280;2932;52.400;9.558;2023-02-10T11:36:36;102906.84;;;10.00;63.55
5812;BME280;2932;52.400;9.558;2023-02-10T11:39:05;102897.56;;;10.59;63.23
5812;BME280;2932;52.400;9.558;2023-02-10T11:41:31;102906.56;;;10.75;62.74
5812;BME280;2932;52.400;9.558;2023-02-10T11:43:57;102890.66;;;10.27;63.12
5812;BME280;2932;52.400;9.558;2023-02-10T11:46:27;102902.84;;;11.37;61.56
5812;BME280;2932;52.400;9.558;2023-02-10T11:49:02;102892.56;;;10.90;61.36
5812;BME280;2932;52.400;9.558;2023-02-10T11:51:29;102902.94;;;11.27;60.41
5812;BME280;2932;52.400;9.558;2023-02-10T11:53:55;102897.69;;;12.62;58.30
5812;BME280;2932;52.400;9.558;2023-02-10T12:02:46;102893.19;;;11.77;59.13
5812;BME280;2932;52.400;9.558;2023-02-10T12:08:20;102880.66;;;12.17;58.35
5812;BME280;2932;52.400;9.558;2023-02-10T12:16:38;102877.47;;;11.49;59.07
5812;BME280;2932;52.400;9.558;2023-02-10T12:19:09;102877.78;;;12.41;57.51
5812;BME280;2932;52.400;9.558;2023-02-10T12:21:42;102877.69;;;12.46;57.67
5812;BME280;2932;52.400;9.558;2023-02-10T12:24:29;102876.44;;;12.85;57.87
5812;BME280;2932;52.400;9.558;2023-02-10T12:27:07;102865.28;;;13.45;54.56
5812;BME280;2932;52.400;9.558;2023-02-10T12:53:28;102837.03;;;15.33;49.86
5812;BME280;2932;52.400;9.558;2023-02-10T12:55:59;102833.13;;;12.70;54.83
5812;BME280;2932;52.400;9.558;2023-02-10T12:58:30;102831.19;;;13.12;55.79
5812;BME280;2932;52.400;9.558;2023-02-10T13:03:39;102829.72;;;11.94;58.00
5812;BME280;2932;52.400;9.558;2023-02-10T13:09:10;102811.50;;;11.88;58.78
5812;BME280;2932;52.400;9.558;2023-02-10T13:14:26;102806.16;;;13.39;54.56
5812;BME280;2932;52.400;9.558;2023-02-10T13:16:57;102804.84;;;13.23;54.05
5812;BME280;2932;52.400;9.558;2023-02-10T13:19:45;102797.50;;;13.54;54.12
5812;BME280;2932;52.400;9.558;2023-02-10T13:25:30;102796.19;;;13.11;54.74
5812;BME280;2932;52.400;9.558;2023-02-10T13:28:20;102818.69;;;12.54;56.21
5812;BME280;2932;52.400;9.558;2023-02-10T13:36:17;102813.19;;;11.47;58.82
5812;BME280;2932;52.400;9.558;2023-02-10T13:38:46;102805.09;;;12.07;57.24
5812;BME280;2932;52.400;9.558;2023-02-10T13:41:29;102803.00;;;12.77;55.55
5812;BME280;2932;52.400;9.558;2023-02-10T13:44:36;102801.38;;;11.97;57.23
5812;BME280;2932;52.400;9.558;2023-02-10T13:49:36;102787.03;;;11.34;59.45
5812;BME280;2932;52.400;9.558;2023-02-10T13:52:20;102782.72;;;11.84;57.39
5812;BME280;2932;52.400;9.558;2023-02-10T13:55:24;102784.22;;;12.09;57.28
5812;BME280;2932;52.400;9.558;2023-02-10T13:57:57;102787.50;;;12.30;56.98
5812;BME280;2932;52.400;9.558;2023-02-10T14:00:27;102782.38;;;12.05;56.23
5812;BME280;2932;52.400;9.558;2023-02-10T14:05:38;102782.09;;;11.68;57.58
5812;BME280;2932;52.400;9.558;2023-02-10T14:08:15;102780.22;;;11.64;58.05
5812;BME280;2932;52.400;9.558;2023-02-10T14:10:57;102783.25;;;11.06;58.28
5812;BME280;2932;52.400;9.558;2023-02-10T14:13:25;102781.97;;;9.88;60.77
5812;BME280;2932;52.400;9.558;2023-02-10T14:16:04;102783.13;;;10.45;60.19
5812;BME280;2932;52.400;9.558;2023-02-10T14:18:32;102770.50;;;11.48;58.19
5812;BME280;2932;52.400;9.558;2023-02-10T14:21:15;102765.53;;;12.61;56.09
5812;BME280;2932;52.400;9.558;2023-02-10T14:23:50;102756.16;;;11.22;57.15
5812;BME280;2932;52.400;9.558;2023-02-10T14:26:20;102766.97;;;11.42;57.71
5812;BME280;2932;52.400;9.558;2023-02-10T14:28:49;102749.81;;;11.59;57.80
5812;BME280;2932;52.400;9.558;2023-02-10T14:31:23;102750.75;;;12.19;56.14
5812;BME280;2932;52.400;9.558;2023-02-10T14:34:01;102745.47;;;13.19;54.80
5812;BME280;2932;52.400;9.558;2023-02-10T14:36:27;102734.94;;;14.50;50.97
5812;BME280;2932;52.400;9.558;2023-02-10T14:38:55;102747.34;;;13.68;52.18
5812;BME280;2932;52.400;9.558;2023-02-10T14:41:24;102745.88;;;14.15;51.50
5812;BME280;2932;52.400;9.558;2023-02-10T14:43:50;102747.69;;;14.73;49.95
5812;BME280;2932;52.400;9.558;2023-02-10T14:46:29;102750.38;;;15.21;49.75
5812;BME280;2932;52.400;9.558;2023-02-10T14:48:58;102740.28;;;15.86;47.94
5812;BME280;2932;52.400;9.558;2023-02-10T14:51:27;102732.19;;;16.01;48.09
5812;BME280;2932;52.400;9.558;2023-02-10T14:53:52;102733.94;;;16.23;48.63
5812;BME280;2932;52.400;9.558;2023-02-10T14:56:19;102737.13;;;15.10;49.26
5812;BME280;2932;52.400;9.558;2023-02-10T14:58:45;102731.81;;;13.31;52.07
5812;BME280;2932;52.400;9.558;2023-02-10T15:01:20;102735.19;;;13.42;51.65
5812;BME280;2932;52.400;9.558;2023-02-10T15:03:47;102738.28;;;12.77;53.14
5812;BME280;2932;52.400;9.558;2023-02-10T15:06:16;102733.09;;;12.84;52.64
5812;BME280;2932;52.400;9.558;2023-02-10T15:08:44;102743.72;;;12.68;53.21
5812;BME280;2932;52.400;9.558;2023-02-10T15:11:18;102739.50;;;12.84;52.70
5812;BME280;2932;52.400;9.558;2023-02-10T15:14:06;102741.13;;;11.09;55.59
5812;BME280;2932;52.400;9.558;2023-02-10T15:16:35;102738.78;;;11.35;55.44
5812;BME280;2932;52.400;9.558;2023-02-10T15:19:00;102729.94;;;12.03;54.87
5812;BME280;2932;52.400;9.558;2023-02-10T15:21:36;102723.59;;;11.51;55.63
5812;BME280;2932;52.400;9.558;2023-02-10T15:24:02;102724.22;;;12.13;53.37
5812;BME280;2932;52.400;9.558;2023-02-10T15:26:29;102729.41;;;10.93;55.95
5812;BME280;2932;52.400;9.558;2023-02-10T15:29:08;102725.47;;;11.18;56.56
5812;BME280;2932;52.400;9.558;2023-02-10T15:31:34;102716.97;;;11.85;54.59